createdAt,value
2023-04-02T00:01:01.507Z,100.00
2023-04-02T00:03:42.461Z,100.00
2023-04-02T00:06:32.736Z,100.00
2023-04-02T00:09:15.779Z,100.00
2023-04-02T00:11:48.554Z,100.00
2023-04-02T00:14:29.171Z,100.00
2023-04-02T00:16:59.764Z,100.00
2023-04-02T00:19:42.729Z,100.00
2023-04-02T00:22:20.398Z,100.00
2023-04-02T00:24:52.607Z,100.00
2023-04-02T00:27:20.994Z,100.00
2023-04-02T00:29:56.246Z,100.00
2023-04-02T00:32:33.104Z,100.00
2023-04-02T00:35:01.232Z,100.00
2023-04-02T00:37:38.990Z,100.00
2023-04-02T00:40:19.651Z,100.00
2023-04-02T00:42:50.011Z,100.00
2023-04-02T00:45:33.341Z,100.00
2023-04-02T00:48:24.902Z,100.00
2023-04-02T00:50:55.003Z,100.00
2023-04-02T00:53:29.640Z,100.00
2023-04-02T00:55:59.218Z,100.00
2023-04-02T00:58:31.824Z,100.00
2023-04-02T01:01:00.280Z,100.00
2023-04-02T01:03:36.518Z,100.00
2023-04-02T01:06:11.432Z,100.00
2023-04-02T01:09:01.906Z,100.00
2023-04-02T01:11:34.719Z,100.00
2023-04-02T01:14:37.398Z,100.00
2023-04-02T01:17:42.918Z,100.00
2023-04-02T01:20:32.314Z,100.00
2023-04-02T01:23:11.454Z,100.00
2023-04-02T01:25:38.180Z,100.00
2023-04-02T01:28:19.697Z,100.00
2023-04-02T01:30:56.488Z,100.00
2023-04-02T01:33:34.962Z,100.00
2023-04-02T01:36:35.745Z,100.00
2023-04-02T01:39:23.702Z,100.00
2023-04-02T01:42:11.351Z,100.00
2023-04-02T01:44:50.826Z,100.00
2023-04-02T01:47:25.532Z,100.00
2023-04-02T01:50:21.006Z,100.00
2023-04-02T01:52:56.698Z,100.00
2023-04-02T01:55:41.853Z,100.00
2023-04-02T01:58:14.097Z,100.00
2023-04-02T02:01:06.212Z,100.00
2023-04-02T02:03:35.468Z,100.00
2023-04-02T02:06:06.565Z,100.00
2023-04-02T02:08:59.654Z,100.00
2023-04-02T02:11:30.778Z,100.00
2023-04-02T02:14:12.021Z,100.00
2023-04-02T02:16:42.138Z,100.00
2023-04-02T02:19:36.762Z,100.00
2023-04-02T02:22:32.421Z,100.00
2023-04-02T02:25:05.541Z,100.00
2023-04-02T02:27:47.764Z,100.00
2023-04-02T02:30:26.965Z,100.00
2023-04-02T02:33:15.276Z,100.00
2023-04-02T02:35:55.327Z,100.00
2023-04-02T02:38:48.640Z,100.00
2023-04-02T02:41:44.880Z,100.00
2023-04-02T02:44:25.843Z,100.00
2023-04-02T02:47:32.236Z,100.00
2023-04-02T02:50:26.569Z,100.00
2023-04-02T02:52:58.782Z,100.00
2023-04-02T02:55:40.418Z,100.00
2023-04-02T02:58:27.518Z,100.00
2023-04-02T03:01:06.293Z,100.00
2023-04-02T03:03:37.768Z,100.00
2023-04-02T03:06:16.710Z,100.00
2023-04-02T03:09:03.215Z,100.00
2023-04-02T03:12:23.780Z,100.00
2023-04-02T03:15:13.618Z,100.00
2023-04-02T03:18:06.537Z,100.00
2023-04-02T03:20:40.408Z,100.00
2023-04-02T03:23:34.888Z,100.00
2023-04-02T03:26:32.713Z,100.00
2023-04-02T03:29:08.593Z,100.00
2023-04-02T03:31:42.083Z,100.00
2023-04-02T03:34:17.914Z,100.00
2023-04-02T03:37:24.000Z,100.00
2023-04-02T03:40:21.056Z,100.00
2023-04-02T03:43:13.027Z,100.00
2023-04-02T03:45:47.295Z,100.00
2023-04-02T03:48:36.897Z,100.00
2023-04-02T03:51:12.450Z,100.00
2023-04-02T03:53:39.620Z,100.00
2023-04-02T03:56:07.731Z,100.00
2023-04-02T03:58:44.247Z,100.00
2023-04-02T04:01:24.376Z,100.00
2023-04-02T04:03:55.833Z,100.00
2023-04-02T04:06:33.315Z,100.00
2023-04-02T04:09:09.185Z,100.00
2023-04-02T04:11:44.453Z,100.00
2023-04-02T04:14:37.326Z,100.00
2023-04-02T04:17:24.788Z,100.00
2023-04-02T04:20:17.624Z,100.00
2023-04-02T04:22:44.637Z,100.00
2023-04-02T04:25:30.031Z,100.00
2023-04-02T04:28:22.250Z,100.00
2023-04-02T04:31:10.964Z,100.00
2023-04-02T04:33:50.510Z,100.00
2023-04-02T04:36:32.106Z,100.00
2023-04-02T04:39:17.610Z,100.00
2023-04-02T04:41:54.984Z,100.00
2023-04-02T04:44:44.365Z,100.00
2023-04-02T04:47:24.117Z,100.00
2023-04-02T04:50:03.999Z,100.00
2023-04-02T04:52:42.566Z,100.00
2023-04-02T04:55:37.111Z,100.00
2023-04-02T04:58:31.685Z,100.00
2023-04-02T05:01:38.481Z,100.00
2023-04-02T05:04:21.005Z,100.00
2023-04-02T05:07:25.944Z,100.00
2023-04-02T05:10:08.319Z,100.00
2023-04-02T05:12:57.172Z,100.00
2023-04-02T05:15:40.137Z,100.00
2023-04-02T05:18:23.205Z,100.00
2023-04-02T05:20:57.884Z,100.00
2023-04-02T05:23:38.318Z,100.00
2023-04-02T05:26:29.880Z,100.00
2023-04-02T05:29:22.160Z,100.00
2023-04-02T05:31:57.711Z,100.00
2023-04-02T05:34:32.102Z,100.00
2023-04-02T05:36:59.578Z,100.00
2023-04-02T05:39:27.910Z,100.00
2023-04-02T05:42:14.558Z,100.00
2023-04-02T05:45:35.086Z,100.00
2023-04-02T05:48:17.738Z,100.00
2023-04-02T05:50:53.043Z,100.00
2023-04-02T05:53:36.579Z,100.00
2023-04-02T05:56:20.391Z,100.00
2023-04-02T05:59:00.820Z,100.00
2023-04-02T06:01:49.457Z,100.00
2023-04-02T06:04:35.691Z,100.00
2023-04-02T06:07:23.219Z,100.00
2023-04-02T06:10:05.846Z,100.00
2023-04-02T06:12:52.669Z,100.00
2023-04-02T06:15:24.270Z,100.00
2023-04-02T06:18:14.563Z,100.00
2023-04-02T06:20:42.884Z,100.00
2023-04-02T06:23:20.840Z,100.00
2023-04-02T06:26:01.809Z,100.00
2023-04-02T06:28:48.547Z,100.00
2023-04-02T06:31:42.529Z,100.00
2023-04-02T06:34:22.361Z,100.00
2023-04-02T06:37:23.492Z,100.00
2023-04-02T06:39:58.757Z,100.00
2023-04-02T06:42:41.407Z,100.00
2023-04-02T06:45:42.154Z,100.00
2023-04-02T06:48:37.192Z,100.00
2023-04-02T06:51:13.002Z,100.00
2023-04-02T06:53:48.438Z,100.00
2023-04-02T06:56:46.734Z,100.00
2023-04-02T06:59:20.302Z,100.00
2023-04-02T07:01:57.447Z,100.00
2023-04-02T07:04:26.125Z,100.00
2023-04-02T07:06:56.844Z,100.00
2023-04-02T07:09:26.760Z,100.00
2023-04-02T07:11:59.703Z,100.00
2023-04-02T07:14:26.658Z,100.00
2023-04-02T07:16:53.487Z,100.00
2023-04-02T07:19:23.003Z,100.00
2023-04-02T07:21:53.870Z,100.00
2023-04-02T07:24:25.090Z,100.00
2023-04-02T07:26:54.645Z,100.00
2023-04-02T07:29:21.666Z,100.00
2023-04-02T07:31:48.641Z,100.00
2023-04-02T07:34:18.181Z,100.00
2023-04-02T07:36:45.066Z,100.00
2023-04-02T07:39:12.339Z,100.00
2023-04-02T07:41:58.956Z,100.00
2023-04-02T07:44:25.762Z,100.00
2023-04-02T07:46:52.772Z,100.00
2023-04-02T07:49:19.783Z,100.00
2023-04-02T07:51:47.467Z,100.00
2023-04-02T07:54:14.289Z,100.00
2023-04-02T07:56:41.268Z,100.00
2023-04-02T07:59:08.242Z,100.00
2023-04-02T08:01:35.571Z,100.00
2023-04-02T08:04:05.357Z,100.00
2023-04-02T08:06:32.234Z,100.00
2023-04-02T08:08:59.423Z,100.00
2023-04-02T08:11:26.355Z,100.00
2023-04-02T08:13:53.179Z,100.00
2023-04-02T08:16:20.084Z,100.00
2023-04-02T08:18:47.759Z,100.00
2023-04-02T08:21:16.699Z,100.00
2023-04-02T08:23:43.905Z,100.00
2023-04-02T08:26:11.186Z,100.00
2023-04-02T08:28:38.143Z,100.00
2023-04-02T08:31:05.152Z,100.00
2023-04-02T08:33:32.625Z,100.00
2023-04-02T08:35:59.541Z,100.00
2023-04-02T08:38:26.541Z,100.00
2023-04-02T08:40:59.761Z,100.00
2023-04-02T08:44:05.467Z,100.00
2023-04-02T08:46:52.247Z,100.00
2023-04-02T08:49:31.226Z,100.00
2023-04-02T08:51:58.862Z,100.00
2023-04-02T08:54:31.388Z,100.00
2023-04-02T08:57:19.464Z,100.00
2023-04-02T08:59:47.977Z,100.00
2023-04-02T09:02:30.036Z,100.00
2023-04-02T09:05:03.426Z,100.00
2023-04-02T09:07:33.227Z,100.00
2023-04-02T09:10:01.054Z,100.00
2023-04-02T09:12:31.848Z,100.00
2023-04-02T09:15:24.600Z,100.00
2023-04-02T09:18:04.153Z,100.00
2023-04-02T09:20:31.166Z,100.00
2023-04-02T09:22:58.888Z,100.00
2023-04-02T09:25:32.192Z,100.00
2023-04-02T09:28:05.814Z,100.00
2023-04-02T09:30:32.536Z,100.00
2023-04-02T09:33:09.410Z,100.00
2023-04-02T09:35:57.730Z,100.00
2023-04-02T09:38:31.678Z,100.00
2023-04-02T09:41:18.612Z,100.00
2023-04-02T09:43:45.656Z,100.00
2023-04-02T09:46:26.127Z,100.00
2023-04-02T09:48:58.529Z,100.00
2023-04-02T09:51:31.785Z,100.00
2023-04-02T09:54:04.780Z,100.00
2023-04-02T09:56:41.094Z,100.00
2023-04-02T09:59:13.784Z,100.00
2023-04-02T10:01:49.836Z,100.00
2023-04-02T10:04:44.642Z,100.00
2023-04-02T10:07:43.651Z,100.00
2023-04-02T10:10:26.295Z,100.00
2023-04-02T10:13:25.622Z,100.00
2023-04-02T10:16:11.666Z,100.00
2023-04-02T10:19:13.364Z,100.00
2023-04-02T10:21:44.355Z,100.00
2023-04-02T10:24:17.386Z,100.00
2023-04-02T10:26:53.126Z,100.00
2023-04-02T10:29:39.049Z,100.00
2023-04-02T10:32:14.387Z,100.00
2023-04-02T10:34:52.106Z,100.00
2023-04-02T10:37:45.828Z,100.00
2023-04-02T10:40:34.501Z,100.00
2023-04-02T10:43:21.756Z,100.00
2023-04-02T10:46:02.893Z,100.00
2023-04-02T10:48:40.233Z,100.00
2023-04-02T10:51:43.150Z,100.00
2023-04-02T10:54:48.139Z,100.00
2023-04-02T10:57:41.518Z,100.00
2023-04-02T11:00:11.411Z,100.00
2023-04-02T11:03:08.207Z,100.00
2023-04-02T11:05:52.049Z,100.00
2023-04-02T11:08:44.467Z,100.00
2023-04-02T11:11:57.632Z,100.00
2023-04-02T11:14:28.459Z,100.00
2023-04-02T11:17:03.085Z,100.00
2023-04-02T11:19:36.015Z,100.00
2023-04-02T11:22:24.544Z,100.00
2023-04-02T11:24:53.772Z,100.00
2023-04-02T11:27:30.382Z,100.00
2023-04-02T11:30:15.945Z,100.00
2023-04-02T11:32:50.340Z,100.00
2023-04-02T11:35:32.303Z,100.00
2023-04-02T11:38:12.126Z,100.00
2023-04-02T11:40:45.982Z,100.00
2023-04-02T11:43:34.595Z,100.00
2023-04-02T11:46:28.958Z,100.00
2023-04-02T11:49:41.179Z,100.00
2023-04-02T11:52:34.288Z,100.00
2023-04-02T11:55:28.022Z,100.00
2023-04-02T11:58:06.806Z,100.00
2023-04-02T12:00:57.820Z,100.00
2023-04-02T12:03:54.879Z,100.00
2023-04-02T12:06:42.399Z,100.00
2023-04-02T12:09:44.792Z,100.00
2023-04-02T12:12:36.504Z,98.53
2023-04-02T12:15:25.485Z,95.51
2023-04-02T12:17:52.437Z,95.71
2023-04-02T12:20:27.338Z,96.29
2023-04-02T12:22:56.490Z,90.06
2023-04-02T12:25:42.121Z,88.83
2023-04-02T12:28:14.471Z,86.30
2023-04-02T12:30:42.098Z,87.94
2023-04-02T12:33:33.650Z,91.67
2023-04-02T12:36:05.199Z,86.23
2023-04-02T12:38:43.136Z,82.68
2023-04-02T12:41:24.294Z,83.72
2023-04-02T12:44:02.528Z,82.78
2023-04-02T12:46:35.536Z,83.86
2023-04-02T12:49:27.102Z,86.54
2023-04-02T12:51:54.860Z,77.18
2023-04-02T12:54:22.167Z,77.48
2023-04-02T12:56:50.363Z,78.38
2023-04-02T12:59:31.926Z,78.99
2023-04-02T13:02:02.578Z,79.68
2023-04-02T13:04:29.864Z,77.70
2023-04-02T13:06:57.014Z,76.50
2023-04-02T13:10:08.026Z,75.80
2023-04-02T13:12:41.465Z,74.55
2023-04-02T13:15:27.204Z,73.02
2023-04-02T13:18:13.445Z,71.92
2023-04-02T13:20:43.089Z,67.56
2023-04-02T13:23:31.422Z,65.04
2023-04-02T13:26:08.893Z,65.46
2023-04-02T13:28:36.071Z,65.33
2023-04-02T13:31:03.021Z,65.58
2023-04-02T13:33:29.967Z,67.17
2023-04-02T13:35:56.837Z,62.39
2023-04-02T13:38:23.747Z,59.58
2023-04-02T13:40:51.461Z,59.00
2023-04-02T13:43:20.672Z,59.66
2023-04-02T13:45:54.392Z,61.44
2023-04-02T13:48:24.595Z,58.56
2023-04-02T13:50:52.924Z,59.06
2023-04-02T13:53:32.997Z,56.03
2023-04-02T13:55:59.842Z,56.09
2023-04-02T13:58:27.095Z,59.43
2023-04-02T14:00:54.010Z,57.61
2023-04-02T14:03:22.791Z,53.06
2023-04-02T14:06:41.061Z,52.66
2023-04-02T14:09:39.728Z,54.53
2023-04-02T14:12:39.075Z,54.77
2023-04-02T14:15:38.471Z,53.85
2023-04-02T14:19:00.716Z,52.16
2023-04-02T14:21:51.791Z,53.61
2023-04-02T14:24:46.610Z,53.30
2023-04-02T14:27:44.939Z,51.43
2023-04-02T14:30:21.920Z,51.88
2023-04-02T14:33:06.859Z,51.16
2023-04-02T14:35:47.328Z,50.83
2023-04-02T14:38:43.283Z,52.26
2023-04-02T14:41:46.085Z,51.14
2023-04-02T14:44:13.407Z,50.63
2023-04-02T14:46:41.755Z,50.83
2023-04-02T14:49:31.650Z,51.14
2023-04-02T14:52:11.594Z,52.46
2023-04-02T14:54:54.567Z,52.63
2023-04-02T14:57:30.560Z,52.09
2023-04-02T15:00:05.162Z,51.57
2023-04-02T15:02:47.217Z,52.75
2023-04-02T15:05:43.380Z,51.37
2023-04-02T15:08:52.384Z,48.49
2023-04-02T15:11:34.099Z,48.72
2023-04-02T15:14:17.738Z,49.40
2023-04-02T15:16:46.748Z,50.36
2023-04-02T15:19:19.116Z,52.06
2023-04-02T15:21:59.973Z,49.90
2023-04-02T15:24:49.717Z,49.61
2023-04-02T15:27:56.260Z,49.14
2023-04-02T15:30:30.123Z,49.29
2023-04-02T15:33:23.079Z,51.91
2023-04-02T15:36:04.779Z,52.02
2023-04-02T15:38:44.600Z,51.29
2023-04-02T15:41:26.578Z,50.80
2023-04-02T15:44:09.942Z,51.68
2023-04-02T15:47:06.894Z,51.29
2023-04-02T15:50:01.354Z,52.94
2023-04-02T15:52:58.986Z,51.11
2023-04-02T15:55:42.780Z,49.37
2023-04-02T15:58:35.569Z,50.13
2023-04-02T16:01:37.365Z,51.08
2023-04-02T16:04:38.880Z,52.65
2023-04-02T16:07:44.812Z,50.67
2023-04-02T16:10:40.945Z,51.96
2023-04-02T16:13:37.404Z,51.02
2023-04-02T16:16:26.954Z,51.54
2023-04-02T16:19:00.180Z,50.30
2023-04-02T16:21:33.612Z,50.05
2023-04-02T16:24:00.572Z,50.53
2023-04-02T16:26:59.680Z,49.14
2023-04-02T16:29:47.093Z,51.18
2023-04-02T16:32:47.182Z,51.33
2023-04-02T16:35:50.880Z,51.69
2023-04-02T16:38:45.734Z,52.24
2023-04-02T16:41:23.771Z,52.59
2023-04-02T16:44:19.231Z,52.65
2023-04-02T16:47:12.088Z,54.12
2023-04-02T16:49:54.906Z,53.50
2023-04-02T16:52:57.916Z,55.25
2023-04-02T16:55:52.144Z,54.81
2023-04-02T16:58:57.912Z,55.66
2023-04-02T17:01:45.594Z,56.58
2023-04-02T17:04:36.523Z,57.65
2023-04-02T17:07:55.383Z,57.22
2023-04-02T17:10:58.188Z,57.36
2023-04-02T17:13:46.392Z,58.44
2023-04-02T17:16:37.038Z,58.85
2023-04-02T17:19:11.630Z,61.13
2023-04-02T17:21:44.019Z,62.61
2023-04-02T17:24:14.308Z,62.62
2023-04-02T17:26:48.162Z,63.45
2023-04-02T17:29:27.270Z,63.67
2023-04-02T17:32:01.745Z,66.03
2023-04-02T17:34:29.481Z,65.89
2023-04-02T17:37:11.203Z,66.87
2023-04-02T17:39:57.697Z,68.42
2023-04-02T17:42:46.272Z,69.76
2023-04-02T17:45:32.588Z,70.23
2023-04-02T17:48:30.610Z,70.74
2023-04-02T17:51:21.766Z,70.60
2023-04-02T17:53:57.604Z,71.80
2023-04-02T17:56:54.708Z,73.03
2023-04-02T17:59:55.465Z,73.29
2023-04-02T18:02:56.296Z,74.16
2023-04-02T18:05:51.093Z,75.39
2023-04-02T18:08:37.487Z,76.22
2023-04-02T18:11:28.318Z,77.18
2023-04-02T18:14:11.283Z,77.72
2023-04-02T18:17:12.534Z,78.86
2023-04-02T18:20:13.582Z,79.74
2023-04-02T18:23:04.875Z,80.15
2023-04-02T18:25:49.509Z,80.58
2023-04-02T18:28:34.190Z,81.04
2023-04-02T18:31:06.594Z,82.00
2023-04-02T18:33:51.964Z,82.80
2023-04-02T18:36:33.924Z,83.69
2023-04-02T18:39:47.993Z,83.82
2023-04-02T18:42:58.820Z,84.63
2023-04-02T18:45:54.378Z,84.98
2023-04-02T18:49:12.568Z,85.71
2023-04-02T18:51:40.293Z,86.34
2023-04-02T18:54:29.765Z,86.63
2023-04-02T18:56:56.625Z,87.23
2023-04-02T18:59:49.296Z,87.60
2023-04-02T19:02:43.057Z,88.38
2023-04-02T19:05:21.413Z,88.49
2023-04-02T19:07:54.362Z,88.61
2023-04-02T19:10:33.110Z,88.76
2023-04-02T19:13:00.432Z,88.67
2023-04-02T19:15:44.257Z,88.79
2023-04-02T19:18:36.569Z,88.95
2023-04-02T19:21:35.830Z,89.34
2023-04-02T19:24:26.230Z,89.89
2023-04-02T19:27:04.959Z,90.55
2023-04-02T19:30:21.595Z,90.70
2023-04-02T19:32:51.349Z,91.18
2023-04-02T19:35:36.127Z,91.45
2023-04-02T19:38:15.203Z,91.80
2023-04-02T19:40:51.543Z,91.91
2023-04-02T19:43:18.387Z,92.33
2023-04-02T19:45:49.120Z,93.17
2023-04-02T19:48:21.749Z,93.53
2023-04-02T19:50:49.537Z,93.92
2023-04-02T19:53:17.565Z,94.35
2023-04-02T19:55:45.528Z,94.73
2023-04-02T19:58:34.791Z,95.14
2023-04-02T20:01:02.479Z,94.66
2023-04-02T20:03:30.399Z,95.01
2023-04-02T20:05:59.500Z,95.07
2023-04-02T20:08:28.041Z,95.30
2023-04-02T20:10:58.473Z,95.50
2023-04-02T20:13:25.470Z,95.92
2023-04-02T20:15:52.414Z,96.11
2023-04-02T20:18:20.509Z,96.46
2023-04-02T20:20:49.262Z,96.61
2023-04-02T20:23:16.993Z,97.30
2023-04-02T20:25:54.943Z,97.91
2023-04-02T20:28:24.522Z,97.95
2023-04-02T20:30:52.222Z,98.34
2023-04-02T20:33:22.572Z,99.12
2023-04-02T20:35:51.837Z,99.19
2023-04-02T20:38:19.360Z,99.73
2023-04-02T20:40:52.699Z,99.67
2023-04-02T20:43:19.614Z,100.00
2023-04-02T20:45:57.326Z,100.00
2023-04-02T20:48:27.368Z,100.00
2023-04-02T20:50:54.452Z,100.00
2023-04-02T20:53:21.426Z,100.00
2023-04-02T20:55:48.972Z,100.00
2023-04-02T20:58:18.095Z,100.00
2023-04-02T21:00:45.824Z,100.00
2023-04-02T21:03:12.772Z,100.00
2023-04-02T21:05:47.802Z,100.00
2023-04-02T21:08:14.968Z,100.00
2023-04-02T21:10:41.835Z,100.00
2023-04-02T21:13:08.646Z,100.00
2023-04-02T21:15:35.797Z,100.00
2023-04-02T21:18:02.731Z,100.00
2023-04-02T21:20:29.656Z,100.00
2023-04-02T21:22:56.424Z,100.00
2023-04-02T21:25:23.235Z,100.00
2023-04-02T21:27:50.244Z,100.00
2023-04-02T21:30:17.153Z,100.00
2023-04-02T21:32:44.080Z,100.00
2023-04-02T21:35:11.047Z,100.00
2023-04-02T21:37:37.846Z,100.00
2023-04-02T21:40:05.391Z,100.00
2023-04-02T21:42:32.199Z,100.00
2023-04-02T21:44:59.057Z,100.00
2023-04-02T21:47:27.739Z,100.00
2023-04-02T21:49:54.583Z,100.00
2023-04-02T21:52:21.421Z,100.00
2023-04-02T21:54:48.252Z,100.00
2023-04-02T21:57:17.824Z,100.00
2023-04-02T21:59:45.356Z,100.00
2023-04-02T22:02:12.217Z,100.00
2023-04-02T22:04:40.908Z,100.00
2023-04-02T22:07:07.775Z,100.00
2023-04-02T22:09:34.679Z,100.00
2023-04-02T22:12:02.323Z,100.00
2023-04-02T22:14:29.738Z,100.00
2023-04-02T22:16:58.779Z,100.00
2023-04-02T22:19:26.537Z,100.00
2023-04-02T22:21:53.553Z,100.00
2023-04-02T22:24:22.390Z,100.00
2023-04-02T22:26:49.611Z,100.00
2023-04-02T22:29:16.925Z,100.00
2023-04-02T22:31:43.902Z,100.00
2023-04-02T22:34:11.019Z,100.00
2023-04-02T22:36:37.930Z,100.00
2023-04-02T22:39:09.818Z,100.00
2023-04-02T22:41:36.939Z,100.00
2023-04-02T22:44:04.101Z,100.00
2023-04-02T22:46:31.494Z,100.00
2023-04-02T22:48:58.916Z,100.00
2023-04-02T22:51:27.898Z,100.00
2023-04-02T22:53:56.319Z,100.00
2023-04-02T22:56:31.766Z,100.00
2023-04-02T22:58:59.308Z,100.00
2023-04-02T23:01:34.102Z,100.00
2023-04-02T23:04:01.514Z,100.00
2023-04-02T23:06:28.773Z,100.00
2023-04-02T23:08:55.965Z,100.00
2023-04-02T23:11:27.433Z,100.00
2023-04-02T23:13:57.816Z,100.00
2023-04-02T23:16:28.224Z,100.00
2023-04-02T23:18:56.416Z,100.00
2023-04-02T23:21:24.034Z,100.00
2023-04-02T23:23:51.430Z,100.00
2023-04-02T23:26:31.319Z,100.00
2023-04-02T23:29:00.397Z,100.00
2023-04-02T23:31:28.335Z,100.00
2023-04-02T23:33:55.784Z,100.00
2023-04-02T23:36:25.477Z,100.00
2023-04-02T23:38:55.340Z,100.00
2023-04-02T23:41:25.133Z,100.00
2023-04-02T23:43:53.169Z,100.00
2023-04-02T23:46:21.079Z,100.00
2023-04-02T23:48:51.669Z,100.00
2023-04-02T23:51:19.065Z,100.00
2023-04-02T23:53:45.924Z,100.00
2023-04-02T23:56:12.737Z,100.00
2023-04-02T23:58:39.578Z,100.00
